Time;durP1;ratioP1;P1;durP2;ratioP2;P2;SDS_P1;SDS_P2;PMS_P1;PMS_P2;Temp;Humidity;BMP_temperature;BMP_pressure;BME280_temperature;BME280_humidity;BME280_pressure;Samples;Min_cycle;Max_cycle;Signal;HPM_P1;HPM_P2
2023/08/31 00:02:54;;;;;;;16.10;5.50;;;;;;;23.54;56.20;98053.70;67818;1278;1016893;-59
2023/08/31 00:05:57;;;;;;;15.30;4.70;;;;;;;23.52;56.33;98054.47;67777;1278;1017436;-60
2023/08/31 00:08:59;;;;;;;14.90;4.80;;;;;;;23.38;56.44;98054.41;67804;1278;1016036;-59
2023/08/31 00:12:02;;;;;;;18.90;4.90;;;;;;;23.38;56.62;98062.23;67787;1278;1018178;-60
2023/08/31 00:15:05;;;;;;;17.50;4.70;;;;;;;23.29;56.97;98066.94;67788;1278;1016477;-59
2023/08/31 00:18:07;;;;;;;;;;;;;;;23.48;56.56;98063.26;67810;1278;1016592;-59
2023/08/31 00:21:10;;;;;;;15.60;4.80;;;;;;;23.67;56.04;98065.33;67842;1278;1016293;-59
2023/08/31 00:24:14;;;;;;;16.10;4.80;;;;;;;23.66;55.98;98066.74;67843;1278;1016334;-59
2023/08/31 00:27:17;;;;;;;14.60;5.20;;;;;;;23.50;56.45;98068.82;67816;1278;1016327;-59
2023/08/31 00:30:20;;;;;;;14.80;4.60;;;;;;;23.58;56.41;98067.07;67805;1278;1016375;-59
2023/08/31 00:33:22;;;;;;;15.50;4.70;;;;;;;23.61;56.13;98066.67;67818;1278;1015800;-59
2023/08/31 00:36:24;;;;;;;17.50;5.00;;;;;;;23.62;56.07;98069.58;67802;1278;1016469;-58
2023/08/31 00:39:27;;;;;;;;;;;;;;;23.63;56.08;98069.41;67778;1278;1016228;-59
2023/08/31 00:42:30;;;;;;;15.70;4.90;;;;;;;23.54;56.43;98067.51;67750;1278;1016512;-59
2023/08/31 00:45:32;;;;;;;17.00;5.00;;;;;;;23.60;56.35;98063.17;67809;1278;1016600;-59
2023/08/31 00:48:35;;;;;;;15.70;4.80;;;;;;;23.74;55.93;98062.64;67822;1278;1016727;-59
2023/08/31 00:51:37;;;;;;;15.90;4.50;;;;;;;23.75;56.02;98058.98;67785;1278;1016392;-59
2023/08/31 00:54:42;;;;;;;17.40;5.40;;;;;;;23.60;56.26;98058.06;67764;1278;1016732;-59
2023/08/31 00:57:44;;;;;;;16.00;4.90;;;;;;;23.47;56.72;98059.17;67845;1278;1016941;-59
2023/08/31 01:00:47;;;;;;;14.10;4.80;;;;;;;23.54;56.41;98057.54;67855;1278;1016458;-59
2023/08/31 01:03:50;;;;;;;17.00;5.00;;;;;;;23.61;56.21;98059.15;67835;1278;1016340;-60
2023/08/31 01:06:52;;;;;;;14.60;4.70;;;;;;;23.62;56.21;98059.23;67810;1278;1016431;-59
2023/08/31 01:09:54;;;;;;;16.00;5.10;;;;;;;23.60;56.30;98063.59;67828;1278;1017114;-59
2023/08/31 01:12:57;;;;;;;14.90;4.50;;;;;;;23.67;56.06;98061.59;67850;1278;1016227;-59
2023/08/31 01:15:59;;;;;;;17.20;5.00;;;;;;;23.64;56.12;98068.18;67829;1278;1018265;-59
2023/08/31 01:19:01;;;;;;;18.90;5.10;;;;;;;23.84;55.55;98065.48;67767;1278;1016393;-59
2023/08/31 01:22:04;;;;;;;16.60;4.50;;;;;;;23.85;55.59;98069.72;67794;1278;1019107;-59
2023/08/31 01:25:09;;;;;;;17.30;4.60;;;;;;;23.84;55.43;98072.11;67776;1277;1016450;-60
2023/08/31 01:28:11;;;;;;;15.90;4.50;;;;;;;23.73;55.80;98077.80;67851;1278;1016615;-59
2023/08/31 01:31:14;;;;;;;14.60;4.80;;;;;;;23.57;56.28;98081.45;67807;1278;1016144;-59
2023/08/31 01:34:17;;;;;;;17.90;4.90;;;;;;;23.39;56.69;98081.09;67789;1278;1016549;-59
2023/08/31 01:37:19;;;;;;;14.50;4.30;;;;;;;23.42;56.63;98081.54;67848;1278;1016413;-59
2023/08/31 01:40:23;;;;;;;15.30;4.90;;;;;;;23.28;56.96;98081.19;67817;1277;1016099;-58
2023/08/31 01:43:25;;;;;;;14.90;4.50;;;;;;;23.20;57.30;98079.17;67835;1278;1016515;-59
2023/08/31 01:46:27;;;;;;;16.90;4.60;;;;;;;23.18;57.38;98080.80;67817;1278;1017372;-59
2023/08/31 01:49:30;;;;;;;15.40;4.30;;;;;;;22.98;58.11;98086.35;67799;1277;1016422;-59
2023/08/31 01:52:32;;;;;;;;;;;;;;;23.09;57.41;98087.57;67803;1278;1016427;-59
2023/08/31 01:55:35;;;;;;;14.00;4.50;;;;;;;23.20;57.16;98080.58;67801;1278;1016460;-60
2023/08/31 01:58:37;;;;;;;14.80;4.40;;;;;;;23.23;56.90;98078.57;67867;1278;1016425;-59
2023/08/31 02:01:40;;;;;;;16.70;4.90;;;;;;;23.13;57.20;98087.86;67782;1277;1016426;-59
2023/08/31 02:04:42;;;;;;;17.30;4.60;;;;;;;23.12;57.24;98089.34;67757;1278;1016266;-59
2023/08/31 02:07:44;;;;;;;15.50;4.90;;;;;;;23.10;57.44;98086.06;67720;1277;1016689;-60
2023/08/31 02:10:47;;;;;;;16.60;4.70;;;;;;;23.19;57.15;98076.73;67842;1278;1016549;-59
2023/08/31 02:13:49;;;;;;;15.40;4.90;;;;;;;23.25;56.97;98076.17;67835;1278;1016416;-59
2023/08/31 02:16:52;;;;;;;14.30;4.40;;;;;;;23.35;56.54;98074.44;67840;1278;1016464;-58
2023/08/31 02:19:54;;;;;;;15.10;4.80;;;;;;;23.24;56.90;98076.68;67761;1278;1016237;-59
2023/08/31 02:22:56;;;;;;;18.80;5.00;;;;;;;23.30;56.64;98071.06;67784;1278;1016380;-59
2023/08/31 02:25:59;;;;;;;;;;;;;;;23.32;56.73;98067.27;67838;1278;1016499;-59
2023/08/31 02:29:01;;;;;;;17.30;4.80;;;;;;;23.32;56.72;98069.10;67854;1278;1016124;-59
2023/08/31 02:32:05;;;;;;;15.90;4.80;;;;;;;23.10;57.39;98069.08;67785;1278;1016384;-59
2023/08/31 02:35:08;;;;;;;16.80;4.80;;;;;;;23.11;57.15;98061.88;67819;1278;1016569;-59
2023/08/31 02:38:10;;;;;;;18.30;4.80;;;;;;;23.18;57.06;98059.00;67782;1278;1015967;-59
2023/08/31 02:41:12;;;;;;;15.30;5.00;;;;;;;23.01;57.54;98059.02;67802;1278;1016667;-59
2023/08/31 02:44:15;;;;;;;16.20;4.70;;;;;;;22.96;57.73;98057.16;67782;1278;1016393;-60
2023/08/31 02:47:17;;;;;;;17.80;5.50;;;;;;;23.03;57.63;98058.42;67807;1278;1016107;-59
2023/08/31 02:50:19;;;;;;;17.90;5.40;;;;;;;23.13;57.15;98065.90;67868;1278;1016205;-59
2023/08/31 02:53:22;;;;;;;16.70;5.70;;;;;;;23.26;56.95;98070.75;67873;1278;1016375;-59
2023/08/31 02:56:24;;;;;;;17.60;5.70;;;;;;;23.42;56.59;98077.04;67798;1278;1016364;-59
2023/08/31 02:59:27;;;;;;;17.70;5.70;;;;;;;23.44;56.62;98082.70;67803;1254;1016673;-59
2023/08/31 03:02:29;;;;;;;24.90;5.80;;;;;;;23.35;56.72;98088.88;67794;1278;1016385;-59
2023/08/31 03:05:31;;;;;;;;;;;;;;;23.27;56.93;98088.94;67854;1278;1016673;-60
2023/08/31 03:08:34;;;;;;;16.20;5.00;;;;;;;23.32;56.68;98093.13;67876;1278;1018414;-59
2023/08/31 03:11:36;;;;;;;15.90;5.00;;;;;;;23.23;57.17;98093.77;67824;1278;1016486;-59
2023/08/31 03:14:39;;;;;;;17.80;5.70;;;;;;;23.19;57.23;98098.89;67804;1278;1016410;-60
2023/08/31 03:17:41;;;;;;;24.70;6.90;;;;;;;23.44;56.60;98101.77;67769;1278;1016261;-59
2023/08/31 03:20:43;;;;;;;19.50;6.50;;;;;;;23.36;56.48;98100.34;67795;1278;1016380;-60
2023/08/31 03:23:46;;;;;;;19.60;6.60;;;;;;;23.27;56.78;98107.63;67840;1278;1016474;-60
2023/08/31 03:26:48;;;;;;;20.90;6.00;;;;;;;23.25;56.91;98115.80;67769;1278;1016280;-59
2023/08/31 03:29:51;;;;;;;21.60;6.50;;;;;;;23.20;56.97;98118.55;67811;1278;1016531;-60
2023/08/31 03:32:53;;;;;;;19.60;6.60;;;;;;;23.16;57.09;98120.83;67796;1278;1016459;-59
2023/08/31 03:35:56;;;;;;;18.30;6.30;;;;;;;23.20;57.09;98126.58;67827;1278;1016519;-60
2023/08/31 03:38:58;;;;;;;19.30;6.00;;;;;;;23.25;57.01;98131.36;67866;1278;1016464;-60
2023/08/31 03:42:00;;;;;;;19.80;6.40;;;;;;;23.20;57.18;98136.58;67837;1278;1016708;-60
2023/08/31 03:45:03;;;;;;;18.90;6.50;;;;;;;23.18;57.19;98137.20;67826;1278;1016292;-60
2023/08/31 03:48:05;;;;;;;20.60;6.80;;;;;;;23.19;57.19;98143.14;67838;1278;1016481;-59
2023/08/31 03:51:08;;;;;;;21.20;6.60;;;;;;;23.24;56.96;98141.60;67814;1278;1017242;-59
2023/08/31 03:54:12;;;;;;;;;;;;;;;23.31;56.81;98144.33;67829;1277;1016218;-59
2023/08/31 03:57:15;;;;;;;21.90;7.90;;;;;;;23.34;56.69;98143.38;67802;1277;1016292;-59
2023/08/31 04:00:17;;;;;;;20.70;7.70;;;;;;;23.38;56.51;98143.16;67786;1278;1016458;-60
2023/08/31 04:03:19;;;;;;;21.80;8.80;;;;;;;23.38;56.37;98145.55;67795;1277;1015941;-59
2023/08/31 04:06:22;;;;;;;23.80;8.20;;;;;;;23.33;56.56;98147.27;67807;1278;1016512;-59
2023/08/31 04:09:24;;;;;;;21.40;8.50;;;;;;;23.26;56.71;98146.21;67815;1278;1016400;-59
2023/08/31 04:12:29;;;;;;;21.50;8.10;;;;;;;23.36;56.28;98147.92;67806;1278;1016415;-60
2023/08/31 04:15:31;;;;;;;22.10;8.60;;;;;;;23.42;56.18;98141.92;67798;1277;1017430;-59
2023/08/31 04:18:34;;;;;;;26.00;9.70;;;;;;;23.50;55.99;98141.58;67857;1278;1017059;-59
2023/08/31 04:21:37;;;;;;;23.60;9.20;;;;;;;23.48;56.00;98141.98;67822;1278;1016140;-60
2023/08/31 04:24:40;;;;;;;21.90;8.60;;;;;;;23.47;56.15;98140.27;67765;1278;1016096;-59
2023/08/31 04:27:43;;;;;;;23.10;9.20;;;;;;;23.49;55.99;98149.14;67859;1278;1016452;-59
2023/08/31 04:30:46;;;;;;;23.50;9.30;;;;;;;23.44;56.36;98152.31;67831;1278;1016435;-59
2023/08/31 04:33:53;;;;;;;23.70;9.40;;;;;;;23.53;56.15;98151.48;67846;1278;1016173;-60
2023/08/31 04:36:55;;;;;;;23.50;8.70;;;;;;;23.55;56.04;98147.16;67801;1278;1015921;-59
2023/08/31 04:39:58;;;;;;;23.90;9.10;;;;;;;23.64;55.89;98145.55;67826;1278;1016390;-60
2023/08/31 04:43:00;;;;;;;19.70;8.00;;;;;;;23.69;55.86;98150.86;67815;1278;1016081;-60
2023/08/31 04:46:04;;;;;;;23.90;8.30;;;;;;;23.54;56.34;98161.25;67765;1278;1015981;-60
2023/08/31 04:49:06;;;;;;;21.80;8.70;;;;;;;23.57;56.24;98168.85;67849;1278;1016414;-60
2023/08/31 04:52:08;;;;;;;22.00;8.20;;;;;;;23.52;56.35;98169.06;67822;1278;1016369;-60
2023/08/31 04:55:12;;;;;;;22.70;8.50;;;;;;;23.55;56.38;98168.38;67849;1278;1016230;-59
2023/08/31 04:58:15;;;;;;;23.40;8.80;;;;;;;23.65;56.19;98172.54;67806;1278;1017173;-60
2023/08/31 05:01:17;;;;;;;19.80;8.00;;;;;;;23.73;55.76;98176.88;67802;1278;1016515;-59
2023/08/31 05:04:20;;;;;;;24.20;8.90;;;;;;;23.76;55.89;98178.06;67782;1278;1016477;-60
2023/08/31 05:07:22;;;;;;;20.60;7.60;;;;;;;23.80;55.93;98176.65;67848;1278;1019344;-60
2023/08/31 05:10:25;;;;;;;;;;;;;;;23.73;55.93;98189.48;67840;1278;1016316;-60
2023/08/31 05:13:27;;;;;;;21.90;7.90;;;;;;;23.79;55.96;98191.14;67811;1278;1016532;-60
2023/08/31 05:16:29;;;;;;;21.90;8.40;;;;;;;23.84;55.81;98192.39;67793;1278;1016432;-60
2023/08/31 05:19:32;;;;;;;21.70;8.20;;;;;;;23.84;55.68;98194.11;67781;1278;1016446;-60
2023/08/31 05:22:34;;;;;;;;;;;;;;;23.92;55.60;98187.66;67826;1278;1016426;-60
2023/08/31 05:25:37;;;;;;;;;;;;;;;24.18;55.04;98190.25;67835;1278;1015839;-60
2023/08/31 05:28:39;;;;;;;24.70;8.30;;;;;;;24.28;54.85;98191.54;67796;1278;1016423;-60
2023/08/31 05:31:42;;;;;;;21.30;8.20;;;;;;;24.30;54.53;98193.40;67802;1278;1016662;-58
2023/08/31 05:34:44;;;;;;;24.90;8.20;;;;;;;24.44;54.75;98192.33;67813;1278;1016475;-60
2023/08/31 05:37:46;;;;;;;21.60;8.20;;;;;;;24.28;55.22;98190.63;67827;1278;1016494;-60
2023/08/31 05:40:49;;;;;;;;;;;;;;;24.44;55.04;98191.48;67849;1278;1016387;-60
2023/08/31 05:43:52;;;;;;;21.00;8.00;;;;;;;24.74;54.16;98193.70;67808;1278;1016599;-61
2023/08/31 05:46:54;;;;;;;19.20;7.40;;;;;;;24.76;54.21;98197.95;67837;1278;1016429;-61
2023/08/31 05:49:56;;;;;;;22.40;7.70;;;;;;;25.03;53.51;98199.52;67797;1278;1016387;-60
2023/08/31 05:52:59;;;;;;;;;;;;;;;25.03;53.28;98196.84;67844;1278;1016535;-61
2023/08/31 05:56:04;;;;;;;21.50;7.20;;;;;;;25.10;52.83;98195.98;67811;1278;1016102;-61
2023/08/31 05:59:06;;;;;;;21.00;6.90;;;;;;;25.10;52.67;98202.36;67792;1278;1016604;-60
2023/08/31 06:02:09;;;;;;;;;;;;;;;25.25;52.37;98206.77;67845;1278;1016055;-60
2023/08/31 06:05:13;;;;;;;18.00;6.70;;;;;;;25.40;52.21;98213.34;67806;1278;1016448;-60
2023/08/31 06:08:15;;;;;;;19.00;6.70;;;;;;;25.36;52.30;98215.14;67687;1278;1236267;-59
2023/08/31 06:11:17;;;;;;;20.80;6.80;;;;;;;25.59;52.23;98211.14;67730;1278;1016047;-58
2023/08/31 06:14:20;;;;;;;;;;;;;;;25.89;51.49;98216.27;67802;1278;1016274;-58
2023/08/31 06:17:22;;;;;;;18.20;6.30;;;;;;;26.08;51.84;98211.26;67843;1278;1016404;-58
2023/08/31 06:20:25;;;;;;;;;;;;;;;26.55;51.48;98209.95;67872;1278;1016746;-58
2023/08/31 06:23:27;;;;;;;14.50;4.90;;;;;;;26.85;50.09;98210.77;67799;1278;1016658;-59
2023/08/31 06:26:29;;;;;;;;;;;;;;;26.98;48.79;98208.67;67805;1278;1016285;-59
2023/08/31 06:29:32;;;;;;;16.70;4.90;;;;;;;26.97;49.04;98209.23;67747;1278;1016439;-58
2023/08/31 06:32:34;;;;;;;;;;;;;;;26.97;49.15;98212.77;67831;1278;1016062;-58
2023/08/31 06:35:37;;;;;;;;;;;;;;;27.03;47.52;98216.89;67861;1278;1017811;-59
2023/08/31 06:38:39;;;;;;;;;;;;;;;26.77;48.09;98216.39;67830;1278;1016412;-59
2023/08/31 06:41:42;;;;;;;14.90;4.10;;;;;;;26.71;48.00;98220.83;67804;1278;1015899;-58
2023/08/31 06:44:44;;;;;;;;;;;;;;;26.60;48.10;98222.83;67818;1278;1016270;-58
2023/08/31 06:47:46;;;;;;;13.70;4.40;;;;;;;26.68;47.87;98227.15;67849;1278;1016292;-58
2023/08/31 06:50:49;;;;;;;12.90;4.10;;;;;;;26.47;47.41;98226.79;67843;1278;1016421;-58
2023/08/31 06:53:51;;;;;;;13.20;4.20;;;;;;;26.62;48.49;98226.19;67845;1278;1016107;-59
2023/08/31 06:56:54;;;;;;;11.20;3.90;;;;;;;27.00;47.79;98221.33;67797;1278;1018846;-58
2023/08/31 06:59:56;;;;;;;12.00;3.70;;;;;;;27.35;47.02;98225.05;67779;1278;1016436;-59
2023/08/31 07:02:58;;;;;;;13.90;4.00;;;;;;;27.72;47.59;98226.41;67830;1278;1018886;-59
2023/08/31 07:06:02;;;;;;;10.80;3.70;;;;;;;28.04;46.90;98230.88;67857;1278;1016369;-58
2023/08/31 07:09:06;;;;;;;11.70;4.20;;;;;;;28.09;46.73;98233.27;67805;1278;1016331;-59
2023/08/31 07:12:08;;;;;;;12.30;3.30;;;;;;;28.37;46.31;98236.08;67808;1278;1016394;-59
2023/08/31 07:15:10;;;;;;;8.90;3.30;;;;;;;28.00;43.88;98234.16;67782;1278;1016094;-58
2023/08/31 07:18:13;;;;;;;10.10;3.20;;;;;;;27.56;45.36;98234.62;67804;1278;1016325;-58
2023/08/31 07:21:15;;;;;;;10.50;3.30;;;;;;;27.88;45.47;98237.16;67796;1278;1016606;-58
2023/08/31 07:24:18;;;;;;;7.80;2.80;;;;;;;28.03;44.91;98234.48;67841;1278;1015753;-58
2023/08/31 07:27:20;;;;;;;7.20;2.80;;;;;;;28.41;45.02;98237.82;67871;1278;1016679;-58
2023/08/31 07:30:22;;;;;;;9.10;3.00;;;;;;;28.80;44.35;98237.70;67816;1278;1016173;-58
2023/08/31 07:33:25;;;;;;;8.70;2.90;;;;;;;28.71;42.80;98243.57;67814;1278;1016435;-58
2023/08/31 07:36:27;;;;;;;9.80;3.00;;;;;;;28.61;44.08;98243.52;67784;1278;1016262;-58
2023/08/31 07:39:30;;;;;;;11.90;3.00;;;;;;;28.62;43.56;98247.93;67862;1278;1017712;-58
2023/08/31 07:42:32;;;;;;;8.50;3.00;;;;;;;28.64;43.57;98247.22;67852;1278;1016550;-59
2023/08/31 07:45:35;;;;;;;12.60;3.70;;;;;;;28.75;43.94;98250.72;67853;1278;1016425;-58
2023/08/31 07:48:38;;;;;;;10.40;3.00;;;;;;;28.88;43.72;98252.77;67810;1278;1016461;-59
2023/08/31 07:51:40;;;;;;;11.00;3.40;;;;;;;28.90;43.93;98255.02;67840;1278;1015976;-59
2023/08/31 07:54:42;;;;;;;10.00;3.50;;;;;;;29.18;42.92;98259.91;67872;1278;1016739;-59
2023/08/31 07:57:45;;;;;;;11.20;3.30;;;;;;;29.25;42.63;98261.36;67840;1278;1016409;-59
2023/08/31 08:00:47;;;;;;;9.20;3.20;;;;;;;29.15;41.57;98271.54;67802;1278;1016158;-58
2023/08/31 08:03:50;;;;;;;9.30;3.30;;;;;;;28.89;41.90;98278.66;67792;1278;1016343;-59
2023/08/31 08:06:52;;;;;;;11.30;3.10;;;;;;;28.81;42.72;98279.05;67883;1278;1016279;-59
2023/08/31 08:09:55;;;;;;;10.80;3.30;;;;;;;28.79;42.30;98283.96;67855;1278;1016419;-59
2023/08/31 08:12:58;;;;;;;13.80;3.30;;;;;;;28.86;42.52;98280.81;67803;1278;1015598;-59
2023/08/31 08:16:01;;;;;;;11.20;3.30;;;;;;;29.33;42.77;98269.94;67841;1278;1016775;-59
2023/08/31 08:19:03;;;;;;;11.00;3.40;;;;;;;29.72;41.62;98263.95;67868;1278;1016307;-59
2023/08/31 08:22:05;;;;;;;10.10;3.10;;;;;;;29.92;41.11;98259.92;67778;1278;1016215;-59
2023/08/31 08:25:08;;;;;;;11.60;3.40;;;;;;;29.63;40.55;98259.77;67800;1276;1019004;-59
2023/08/31 08:28:10;;;;;;;8.80;3.20;;;;;;;29.30;40.62;98269.70;67852;1278;1019467;-59
2023/08/31 08:31:13;;;;;;;9.10;3.00;;;;;;;29.02;40.96;98268.01;67879;1278;1016296;-59
2023/08/31 08:34:15;;;;;;;10.10;3.40;;;;;;;29.09;41.08;98268.73;67746;1278;1016297;-59
2023/08/31 08:37:18;;;;;;;9.00;2.80;;;;;;;28.85;39.68;98278.73;67786;1278;1016169;-59
2023/08/31 08:40:20;;;;;;;9.10;3.00;;;;;;;28.43;39.51;98286.27;67830;1278;1017657;-58
2023/08/31 08:43:23;;;;;;;9.90;3.10;;;;;;;28.47;40.48;98288.27;67824;1278;1016394;-59
2023/08/31 08:46:25;;;;;;;7.00;2.80;;;;;;;28.73;40.69;98289.01;67845;1278;1016456;-58
2023/08/31 08:49:28;;;;;;;11.40;3.50;;;;;;;28.92;40.39;98280.11;67801;1278;1016289;-58
2023/08/31 08:52:30;;;;;;;10.00;2.90;;;;;;;29.01;39.83;98280.77;67800;1278;1016537;-58
2023/08/31 08:55:32;;;;;;;6.90;2.80;;;;;;;29.15;39.89;98276.89;67824;1278;1016456;-59
2023/08/31 08:58:35;;;;;;;10.10;3.10;;;;;;;29.30;39.75;98277.02;67819;1257;1016179;-59
2023/08/31 09:01:37;;;;;;;8.90;2.80;;;;;;;29.26;38.46;98289.18;67864;1278;1016368;-59
2023/08/31 09:04:40;;;;;;;10.90;3.30;;;;;;;28.95;39.09;98291.66;67818;1278;1016399;-59
2023/08/31 09:07:42;;;;;;;12.10;3.10;;;;;;;29.28;39.85;98291.58;67779;1278;1016401;-59
2023/08/31 09:10:44;;;;;;;8.50;3.10;;;;;;;29.34;38.39;98299.67;67804;1278;1016482;-59
2023/08/31 09:13:47;;;;;;;9.40;3.50;;;;;;;29.05;38.48;98300.48;67826;1278;1016498;-59
2023/08/31 09:16:49;;;;;;;12.30;3.50;;;;;;;28.79;38.73;98300.20;67825;1255;1016693;-59
2023/08/31 09:19:52;;;;;;;12.90;3.90;;;;;;;28.54;39.27;98304.81;67820;1278;1018876;-59
2023/08/31 09:22:54;;;;;;;15.20;4.10;;;;;;;28.89;39.65;98310.38;67786;1278;1016424;-59
2023/08/31 09:25:57;;;;;;;9.40;3.30;;;;;;;29.34;38.87;98311.36;67821;1278;1016288;-58
2023/08/31 09:28:59;;;;;;;11.90;3.90;;;;;;;29.84;37.95;98311.97;67825;1278;1015807;-59
2023/08/31 09:32:02;;;;;;;10.50;3.70;;;;;;;30.09;36.97;98318.02;67826;1278;1016442;-59
2023/08/31 09:35:05;;;;;;;13.80;3.90;;;;;;;30.22;36.74;98320.65;67789;1278;1016385;-59
2023/08/31 09:38:08;;;;;;;10.80;3.70;;;;;;;30.40;36.87;98323.87;67830;1278;1016214;-58
2023/08/31 09:41:10;;;;;;;13.50;4.10;;;;;;;30.66;37.68;98318.84;67690;1278;1016245;-57
2023/08/31 09:44:13;;;;;;;10.70;4.10;;;;;;;30.90;36.99;98318.81;67741;1279;1016300;-58
2023/08/31 09:47:16;;;;;;;10.40;3.90;;;;;;;31.16;36.87;98315.05;67718;1279;1016240;-58
2023/08/31 09:50:18;;;;;;;10.50;3.40;;;;;;;31.30;35.86;98316.14;67776;1279;1016496;-58
2023/08/31 09:53:20;;;;;;;8.80;3.30;;;;;;;31.45;35.55;98314.70;67749;1279;1020568;-58
2023/08/31 09:56:24;;;;;;;8.30;3.10;;;;;;;31.57;35.84;98311.79;67731;1279;1016070;-59
2023/08/31 09:59:27;;;;;;;10.90;3.20;;;;;;;31.64;34.32;98309.98;67695;1279;1016928;-58
2023/08/31 10:02:29;;;;;;;9.10;2.90;;;;;;;31.53;34.87;98311.61;67711;1279;1016541;-58
2023/08/31 10:05:32;;;;;;;10.60;3.00;;;;;;;31.28;33.70;98320.98;67781;1278;1016368;-58
2023/08/31 10:08:35;;;;;;;8.20;3.00;;;;;;;31.19;35.13;98321.99;67647;1279;1016203;-58
2023/08/31 10:11:37;;;;;;;9.10;2.90;;;;;;;31.35;35.67;98322.21;67737;1278;1016781;-59
2023/08/31 10:14:39;;;;;;;9.80;3.10;;;;;;;31.47;35.11;98316.58;67740;1279;1017982;-59
2023/08/31 10:17:42;;;;;;;11.00;3.30;;;;;;;31.32;34.56;98316.34;67773;1279;1016983;-59
2023/08/31 10:20:45;;;;;;;8.50;3.00;;;;;;;30.97;34.33;98326.83;67763;1279;1016487;-59
2023/08/31 10:23:47;;;;;;;8.50;2.80;;;;;;;30.68;34.71;98325.39;67712;1279;1018148;-59
2023/08/31 10:26:50;;;;;;;8.20;3.20;;;;;;;30.80;35.51;98331.39;67792;1279;1016034;-59
2023/08/31 10:29:52;;;;;;;12.70;3.40;;;;;;;30.93;35.47;98337.42;67705;1279;1016458;-59
2023/08/31 10:32:55;;;;;;;11.30;3.20;;;;;;;30.48;35.45;98343.09;67699;1278;1016408;-59
2023/08/31 10:35:57;;;;;;;8.60;3.00;;;;;;;31.00;36.16;98341.41;67711;1278;1016238;-58
2023/08/31 10:39:00;;;;;;;11.50;3.20;;;;;;;31.45;35.23;98337.55;67778;1279;1016219;-59
2023/08/31 10:42:03;;;;;;;12.40;3.40;;;;;;;31.41;35.78;98330.76;67752;1279;1016759;-59
2023/08/31 10:45:05;;;;;;;10.30;3.20;;;;;;;31.84;35.72;98328.11;67706;1279;1016327;-58
2023/08/31 10:48:07;;;;;;;8.70;3.10;;;;;;;31.62;34.91;98332.45;67734;1279;1017994;-58
2023/08/31 10:51:10;;;;;;;10.40;3.00;;;;;;;31.12;35.10;98332.19;67788;1279;1016057;-58
2023/08/31 10:54:13;;;;;;;11.40;3.00;;;;;;;30.97;35.47;98337.13;67758;1279;1016394;-58
2023/08/31 10:57:15;;;;;;;12.40;3.20;;;;;;;31.17;36.18;98330.84;67700;1279;1016758;-58
2023/08/31 11:00:18;;;;;;;9.20;3.20;;;;;;;31.45;34.96;98337.50;67754;1279;1016393;-59
2023/08/31 11:03:20;;;;;;;9.60;3.30;;;;;;;31.40;35.57;98339.79;67782;1279;1016715;-59
2023/08/31 11:06:25;;;;;;;9.50;3.10;;;;;;;31.41;34.84;98338.25;67737;1279;1016465;-59
2023/08/31 11:09:28;;;;;;;13.00;3.20;;;;;;;30.87;34.09;98343.77;67693;1279;1015967;-59
2023/08/31 11:12:30;;;;;;;11.40;3.30;;;;;;;30.42;35.24;98341.77;60369;1279;2003710;-59
2023/08/31 11:15:33;;;;;;;11.70;3.20;;;;;;;30.40;35.98;98336.52;49776;1278;2018464;-59
2023/08/31 11:18:36;;;;;;;8.80;3.10;;;;;;;30.56;35.93;98333.39;49662;1279;2016434;-59
2023/08/31 11:21:39;;;;;;;8.00;3.00;;;;;;;30.87;35.75;98333.44;51305;1279;2015832;-59
2023/08/31 11:24:42;;;;;;;9.40;2.80;;;;;;;31.21;35.39;98333.34;49814;1278;2016689;-58
2023/08/31 11:27:45;;;;;;;9.10;3.30;;;;;;;31.54;34.70;98331.66;50526;1279;2016047;-59
2023/08/31 11:30:48;;;;;;;10.30;3.30;;;;;;;31.83;35.35;98326.90;49801;1279;2016441;-59
2023/08/31 11:33:52;;;;;;;13.60;3.50;;;;;;;32.31;35.31;98324.20;51321;1279;2016248;-59
2023/08/31 11:36:54;;;;;;;10.40;3.10;;;;;;;32.61;34.63;98323.36;49042;1278;2015911;-59
2023/08/31 11:39:58;;;;;;;11.70;3.60;;;;;;;33.26;33.99;98327.33;51342;1278;2019412;-59
2023/08/31 11:43:01;;;;;;;11.00;3.30;;;;;;;32.78;32.00;98323.59;51314;1279;2016246;-58
2023/08/31 11:46:04;;;;;;;11.00;3.20;;;;;;;32.74;34.06;98319.58;49041;1278;2015733;-59
2023/08/31 11:49:06;;;;;;;10.10;3.00;;;;;;;33.27;33.20;98322.17;51332;1279;2016214;-59
2023/08/31 11:52:09;;;;;;;12.40;3.30;;;;;;;33.64;32.75;98320.24;49067;1279;2016053;-59
2023/08/31 11:55:13;;;;;;;9.90;3.20;;;;;;;33.53;32.80;98318.50;49062;1278;2015680;-59
2023/08/31 11:58:15;;;;;;;10.20;3.40;;;;;;;33.48;33.38;98318.93;51287;1278;2016462;-58
2023/08/31 12:01:18;;;;;;;7.70;2.80;;;;;;;33.80;32.25;98319.78;49666;1278;2016024;-59
2023/08/31 12:04:20;;;;;;;12.00;3.30;;;;;;;33.51;31.60;98316.09;50400;1279;2016215;-58
2023/08/31 12:07:22;;;;;;;8.70;3.10;;;;;;;33.31;32.64;98316.22;51189;1278;2016400;-59
2023/08/31 12:10:26;;;;;;;8.60;3.10;;;;;;;33.52;31.69;98312.64;49028;1279;2018001;-58
2023/08/31 12:13:29;;;;;;;13.30;3.30;;;;;;;33.95;32.08;98315.36;50546;1279;2016961;-59
2023/08/31 12:16:32;;;;;;;9.80;3.10;;;;;;;33.92;31.01;98313.15;51179;1279;2016381;-59
2023/08/31 12:19:34;;;;;;;9.60;3.00;;;;;;;33.58;31.03;98310.73;51137;1279;2016387;-59
2023/08/31 12:22:38;;;;;;;7.90;2.90;;;;;;;33.33;30.61;98314.57;52078;1279;2015931;-59
2023/08/31 12:25:41;;;;;;;7.80;3.00;;;;;;;32.97;30.38;98308.77;66367;1278;2015983;-58
2023/08/31 12:28:43;;;;;;;8.10;3.10;;;;;;;33.46;31.13;98295.91;67701;1279;1016558;-59
2023/08/31 12:31:46;;;;;;;9.40;3.00;;;;;;;33.59;29.89;98304.36;67728;1279;1016419;-59
2023/08/31 12:34:48;;;;;;;11.20;3.30;;;;;;;33.59;30.01;98295.14;67732;1279;1016090;-58
2023/08/31 12:37:51;;;;;;;12.30;3.40;;;;;;;33.82;30.42;98298.42;67794;1278;1016347;-58
2023/08/31 12:40:53;;;;;;;10.50;3.40;;;;;;;33.84;30.06;98305.63;67761;1279;1016790;-57
2023/08/31 12:43:56;;;;;;;10.50;3.30;;;;;;;33.82;30.38;98297.00;67739;1278;1016475;-58
2023/08/31 12:46:58;;;;;;;10.30;3.20;;;;;;;33.71;29.40;98299.29;67732;1278;1016216;-59
2023/08/31 12:50:02;;;;;;;12.90;3.60;;;;;;;32.66;29.57;98303.98;67772;1279;1016927;-58
2023/08/31 12:53:04;;;;;;;12.30;3.70;;;;;;;32.07;30.84;98304.00;67761;1279;1016486;-58
2023/08/31 12:56:07;;;;;;;9.60;3.30;;;;;;;31.64;31.42;98300.54;67764;1279;1016531;-59
2023/08/31 12:59:09;;;;;;;8.50;2.80;;;;;;;31.50;31.26;98309.77;67781;1279;1016242;-58
2023/08/31 13:02:12;;;;;;;11.10;3.00;;;;;;;31.12;31.68;98314.15;67721;1279;1017516;-59
2023/08/31 13:05:14;;;;;;;8.40;2.90;;;;;;;30.81;32.06;98321.52;67678;1279;1016352;-59
2023/08/31 13:08:16;;;;;;;7.90;2.70;;;;;;;30.60;32.08;98321.52;67701;1279;1016436;-59
2023/08/31 13:11:23;;;;;;;11.80;3.60;;;;;;;30.42;32.95;98328.95;67732;1278;1019530;-59
2023/08/31 13:14:25;;;;;;;10.00;3.20;;;;;;;29.75;34.23;98347.27;67768;1279;1016412;-59
2023/08/31 13:17:28;;;;;;;7.30;3.00;;;;;;;29.15;35.56;98355.19;67762;1279;1016437;-59
2023/08/31 13:20:30;;;;;;;15.00;3.20;;;;;;;28.93;36.09;98345.54;67696;1279;1015901;-59
2023/08/31 13:23:32;;;;;;;19.40;3.20;;;;;;;28.90;35.94;98351.06;67710;1278;1016354;-58
2023/08/31 13:26:35;;;;;;;11.00;3.20;;;;;;;28.87;36.88;98350.80;67742;1278;1019421;-59
2023/08/31 13:29:38;;;;;;;13.00;3.20;;;;;;;28.98;36.56;98359.70;67731;1278;1019720;-59
2023/08/31 13:32:40;;;;;;;12.00;3.30;;;;;;;28.94;37.31;98363.05;67723;1278;1019613;-59
2023/08/31 13:35:43;;;;;;;9.20;2.90;;;;;;;28.92;37.52;98365.62;67738;1279;1016187;-59
2023/08/31 13:38:45;;;;;;;6.70;2.80;;;;;;;28.93;37.47;98373.98;67798;1279;1016254;-58
2023/08/31 13:41:48;;;;;;;8.30;3.00;;;;;;;28.67;37.65;98374.94;67790;1279;1015710;-59
2023/08/31 13:44:50;;;;;;;12.00;3.30;;;;;;;28.55;38.07;98383.08;67695;1279;1018268;-59
2023/08/31 13:47:53;;;;;;;9.30;3.10;;;;;;;28.47;38.11;98384.18;67720;1279;1016499;-58
2023/08/31 13:50:55;;;;;;;7.10;3.10;;;;;;;28.16;39.15;98384.66;67754;1279;1016427;-59
2023/08/31 13:53:57;;;;;;;8.80;2.90;;;;;;;28.01;39.46;98392.51;67717;1279;1016220;-59
2023/08/31 13:57:00;;;;;;;12.30;3.40;;;;;;;27.55;40.32;98415.92;67755;1279;1016074;-58
2023/08/31 14:00:04;;;;;;;10.70;3.00;;;;;;;26.90;40.88;98431.21;67721;1279;1019645;-59